createdAt,value
2018-11-23T00:04:15.691Z,-0.20
2018-11-23T00:10:53.280Z,-0.25
2018-11-23T00:17:35.236Z,-0.26
2018-11-23T00:24:32.420Z,-0.27
2018-11-23T00:33:48.047Z,-0.28
2018-11-23T00:40:19.748Z,-0.31
2018-11-23T00:47:07.990Z,-0.34
2018-11-23T00:54:03.983Z,-0.29
2018-11-23T01:00:37.919Z,-0.39
2018-11-23T01:07:08.571Z,-0.42
2018-11-23T01:13:36.497Z,-0.47
2018-11-23T01:20:13.795Z,-0.48
2018-11-23T01:26:49.380Z,-0.53
2018-11-23T01:36:12.091Z,-0.57
2018-11-23T01:42:34.749Z,-0.62
2018-11-23T01:49:00.562Z,-0.66
2018-11-23T01:55:38.390Z,-0.62
2018-11-23T02:02:16.405Z,-0.66
2018-11-23T02:08:48.335Z,-0.66
2018-11-23T02:15:22.571Z,-0.67
2018-11-23T02:21:49.036Z,-0.72
2018-11-23T02:28:13.856Z,-0.80
2018-11-23T02:38:03.669Z,-0.79
2018-11-23T02:44:28.504Z,-0.87
2018-11-23T02:50:56.332Z,-0.85
2018-11-23T02:57:21.160Z,-0.86
2018-11-23T03:03:47.014Z,-0.87
2018-11-23T03:10:23.871Z,-0.86
2018-11-23T03:17:02.103Z,-0.95
2018-11-23T03:23:37.773Z,-0.98
2018-11-23T03:30:20.734Z,-1.00
2018-11-23T03:40:21.718Z,-1.04
2018-11-23T03:47:01.629Z,-1.11
2018-11-23T03:53:36.538Z,-1.07
2018-11-23T04:00:25.590Z,-1.09
2018-11-23T04:07:02.888Z,-1.17
2018-11-23T04:13:28.347Z,-1.17
2018-11-23T04:19:54.158Z,-1.21
2018-11-23T04:26:24.638Z,-1.32
2018-11-23T04:32:41.758Z,-1.37
2018-11-23T04:42:21.793Z,-1.24
2018-11-23T04:49:00.469Z,-1.28
2018-11-23T04:55:37.401Z,-1.23
2018-11-23T05:02:15.035Z,-1.28
2018-11-23T05:08:54.278Z,-1.32
2018-11-23T05:15:22.143Z,-1.35
2018-11-23T05:18:15.830Z,-1.48
2018-11-23T05:24:50.739Z,-1.40
2018-11-23T05:31:26.711Z,-1.44
2018-11-23T05:38:04.604Z,-1.47
2018-11-23T05:44:30.449Z,-1.40
2018-11-23T05:51:07.349Z,-1.43
2018-11-23T05:57:46.302Z,-1.42
2018-11-23T06:04:10.101Z,-1.59
2018-11-23T06:10:32.997Z,-1.62
2018-11-23T06:16:55.679Z,-1.60
2018-11-23T06:23:24.527Z,-1.62
2018-11-23T06:29:49.341Z,-1.74
2018-11-23T06:36:12.299Z,-1.66
2018-11-23T06:46:25.185Z,-1.54
2018-11-23T06:52:49.331Z,-1.47
2018-11-23T06:59:15.888Z,-1.44
2018-11-23T07:05:40.638Z,-1.40
2018-11-23T07:12:06.486Z,-1.30
2018-11-23T07:18:29.411Z,-1.18
2018-11-23T07:24:55.090Z,-1.05
2018-11-23T07:31:19.893Z,-0.97
2018-11-23T07:37:45.712Z,-0.87
2018-11-23T07:47:57.841Z,-0.74
2018-11-23T07:54:21.568Z,-0.67
2018-11-23T08:00:43.346Z,-0.61
2018-11-23T08:07:07.190Z,-0.54
2018-11-23T08:13:18.852Z,-0.38
2018-11-23T08:19:47.425Z,-0.32
2018-11-23T08:26:16.889Z,-0.24
2018-11-23T08:32:44.368Z,-0.11
2018-11-23T08:39:08.167Z,-0.01
2018-11-23T08:49:23.261Z,0.16
2018-11-23T08:55:55.138Z,0.31
2018-11-23T09:02:19.950Z,0.47
2018-11-23T09:08:43.748Z,0.62
2018-11-23T09:15:06.560Z,0.77
2018-11-23T09:21:30.518Z,0.89
2018-11-23T09:27:57.208Z,0.99
2018-11-23T09:34:23.131Z,1.12
2018-11-23T09:40:48.164Z,1.23
2018-11-23T09:50:38.688Z,1.34
2018-11-23T09:57:03.459Z,1.49
2018-11-23T10:03:27.299Z,1.61
2018-11-23T10:10:05.321Z,1.67
2018-11-23T10:16:44.146Z,1.78
2018-11-23T10:23:11.033Z,1.91
2018-11-23T10:29:32.761Z,2.02
2018-11-23T10:35:58.625Z,2.08
2018-11-23T10:42:21.467Z,2.18
2018-11-23T10:52:44.544Z,2.34
2018-11-23T10:59:09.639Z,2.44
2018-11-23T11:05:51.399Z,2.49
2018-11-23T11:12:19.294Z,2.56
2018-11-23T11:18:55.050Z,2.58
2018-11-23T11:25:32.776Z,2.60
2018-11-23T11:32:12.021Z,2.60
2018-11-23T11:38:52.265Z,2.61
2018-11-23T11:45:29.176Z,2.63
2018-11-23T11:51:30.450Z,2.66
2018-11-23T11:58:05.368Z,2.67
2018-11-23T12:04:29.167Z,2.69
2018-11-23T12:10:52.959Z,2.72
2018-11-23T12:17:16.762Z,2.73
2018-11-23T12:23:41.637Z,2.76
2018-11-23T12:30:05.429Z,2.80
2018-11-23T12:36:28.159Z,2.84
2018-11-23T12:43:05.088Z,2.85
2018-11-23T12:49:28.894Z,2.89
2018-11-23T12:55:20.389Z,2.99
2018-11-23T13:01:33.057Z,3.04
2018-11-23T13:07:58.882Z,3.12
2018-11-23T13:14:23.712Z,3.18
2018-11-23T13:20:46.478Z,3.24
2018-11-23T13:27:16.406Z,3.33
2018-11-23T13:33:41.102Z,3.44
2018-11-23T13:40:05.269Z,3.53
2018-11-23T13:46:30.749Z,3.63
2018-11-23T13:53:00.647Z,3.71
2018-11-23T14:03:13.048Z,3.71
2018-11-23T14:09:36.829Z,3.72
2018-11-23T14:16:02.296Z,3.71
2018-11-23T14:22:26.100Z,3.63
2018-11-23T14:28:50.306Z,3.60
2018-11-23T14:35:14.107Z,3.59
2018-11-23T14:41:37.855Z,3.51
2018-11-23T14:48:16.462Z,3.49
2018-11-23T14:54:53.725Z,3.50
2018-11-23T15:04:31.148Z,3.36
2018-11-23T15:11:10.101Z,3.31
2018-11-23T15:17:35.901Z,3.19
2018-11-23T15:24:00.892Z,3.20
2018-11-23T15:30:27.541Z,3.15
2018-11-23T15:36:56.369Z,3.11
2018-11-23T15:58:53.672Z,2.84
2018-11-23T16:19:36.763Z,2.79
2018-11-23T16:40:15.399Z,2.67
2018-11-23T17:00:51.258Z,2.54
2018-11-23T17:21:32.935Z,2.38
2018-11-23T17:42:11.215Z,2.28
2018-11-23T18:02:51.313Z,2.20
2018-11-23T18:23:30.368Z,2.07
2018-11-23T18:44:08.612Z,1.97
2018-11-23T19:04:46.031Z,2.01
2018-11-23T19:25:25.094Z,2.20
2018-11-23T19:46:05.788Z,2.29
2018-11-23T20:06:42.869Z,2.52
2018-11-23T20:27:20.227Z,2.59
2018-11-23T20:48:00.519Z,2.52
2018-11-23T21:08:37.836Z,2.53
2018-11-23T21:29:16.999Z,2.47
2018-11-23T21:49:59.401Z,2.54
2018-11-23T22:10:36.350Z,2.54
2018-11-23T22:31:13.772Z,2.61
2018-11-23T22:51:52.012Z,2.61
2018-11-23T23:12:29.027Z,2.71
2018-11-23T23:33:05.630Z,2.81
2018-11-23T23:53:45.935Z,2.83
